Weather at Grand Prairie Army Airfield [CLOSED]

Public forecast

Using degrees Fahrenheit for public forecast. Weather courtesy of forecast.io.

Closest aviation weather report (METAR) to Grand Prairie Army Airfield

Closest report is Grand Prairie Municipal Airport, 2.3 nm (4.2 km) SSW.

2024/05/20 03:35 (retrieved 19 minutes ago)

KGPM 200335Z AUTO 15006KT 10SM CLR 27/19 A2985 RMK AO2 T02710185

Closest aviation forecast (TAF) to Grand Prairie Army Airfield

Forecast is more than 12 hours old.

Closest forecast is NAS Fort Worth JRB / Carswell Field, 21.2 nm (39.3 km) W.

2024/05/19 15:21 Ammendment (retrieved 13 hours ago)

TAF AMD KNFW 1915/2015 17015G25KT 9999 SCT050 QNH2982INS AUTOMATED SENSOR METWATCH 1922 TIL 2011 TX34/1921Z TN22/2012Z AMD 1515 FN20070